createdAt,value
2018-11-20T00:05:00.545Z,1.20
2018-11-20T00:10:25.687Z,1.77
2018-11-20T00:15:46.656Z,1.00
2018-11-20T00:21:10.655Z,1.57
2018-11-20T00:26:40.599Z,1.50
2018-11-20T00:32:15.302Z,1.23
2018-11-20T00:37:45.517Z,1.10
2018-11-20T00:43:02.532Z,1.57
2018-11-20T00:48:23.309Z,0.93
2018-11-20T00:53:39.716Z,0.80
2018-11-20T00:58:56.669Z,1.33
2018-11-20T01:04:23.736Z,0.80
2018-11-20T01:09:40.745Z,1.70
2018-11-20T01:14:58.377Z,2.07
2018-11-20T01:20:08.054Z,2.00
2018-11-20T01:25:15.141Z,1.00
2018-11-20T01:30:33.097Z,1.70
2018-11-20T01:35:56.854Z,1.63
2018-11-20T01:41:23.619Z,2.93
2018-11-20T01:46:48.401Z,1.77
2018-11-20T01:52:00.400Z,2.03
2018-11-20T01:57:21.231Z,1.20
2018-11-20T02:02:38.686Z,1.60
2018-11-20T02:07:48.241Z,2.53
2018-11-20T02:13:30.320Z,2.53
2018-11-20T02:19:34.475Z,1.80
2018-11-20T02:24:50.786Z,2.40
2018-11-20T02:30:20.671Z,2.30
2018-11-20T02:35:38.306Z,2.93
2018-11-20T02:40:58.877Z,2.10
2018-11-20T02:46:05.826Z,1.63
2018-11-20T02:51:23.591Z,2.20
2018-11-20T02:56:35.885Z,1.60
2018-11-20T03:01:52.041Z,2.67
2018-11-20T03:07:15.428Z,2.37
2018-11-20T03:12:27.488Z,1.70
2018-11-20T03:17:47.892Z,2.07
2018-11-20T03:23:11.399Z,2.47
2018-11-20T03:28:26.691Z,3.33
2018-11-20T03:33:33.378Z,3.10
2018-11-20T03:38:49.525Z,1.93
2018-11-20T03:44:13.220Z,2.27
2018-11-20T03:49:48.817Z,2.10
2018-11-20T03:55:05.138Z,2.50
2018-11-20T04:00:51.805Z,3.77
2018-11-20T04:06:07.922Z,2.47
2018-11-20T04:11:21.041Z,2.80
2018-11-20T04:16:37.353Z,2.37
2018-11-20T04:21:57.805Z,3.17
2018-11-20T04:33:32.260Z,2.77
2018-11-20T04:39:01.313Z,2.70
2018-11-20T04:44:17.653Z,2.73
2018-11-20T04:49:41.496Z,2.60
2018-11-20T04:55:01.691Z,3.13
2018-11-20T05:00:18.049Z,2.67
2018-11-20T05:05:38.695Z,2.30
2018-11-20T05:11:02.247Z,2.77
2018-11-20T05:16:30.402Z,2.53
2018-11-20T05:22:24.576Z,2.30
2018-11-20T05:27:40.582Z,4.07
2018-11-20T05:33:01.042Z,2.87
2018-11-20T05:38:18.693Z,3.33
2018-11-20T05:43:34.525Z,3.30
2018-11-20T05:48:50.886Z,2.80
2018-11-20T05:54:08.517Z,3.70
2018-11-20T05:59:26.150Z,2.30
2018-11-20T06:04:42.590Z,2.93
2018-11-20T06:10:09.157Z,3.50
2018-11-20T06:15:25.280Z,2.83
2018-11-20T06:20:39.256Z,3.33
2018-11-20T06:26:08.765Z,4.80
2018-11-20T06:31:25.130Z,2.97
2018-11-20T06:36:42.337Z,4.73
2018-11-20T06:42:02.965Z,4.10
2018-11-20T06:47:20.640Z,4.20
2018-11-20T06:52:50.327Z,2.87
2018-11-20T06:58:42.949Z,3.00
2018-11-20T07:03:56.883Z,4.03
2018-11-20T07:09:20.215Z,3.80
2018-11-20T07:14:37.681Z,3.83
2018-11-20T07:19:56.274Z,3.40
2018-11-20T07:25:12.358Z,3.97
2018-11-20T07:30:33.528Z,3.23
2018-11-20T07:35:53.968Z,3.67
2018-11-20T07:47:12.945Z,3.97
2018-11-20T07:52:35.814Z,2.80
2018-11-20T07:57:51.944Z,2.57
2018-11-20T08:03:01.100Z,3.20
2018-11-20T08:08:17.529Z,3.30
2018-11-20T08:13:27.252Z,4.73
2018-11-20T08:18:53.493Z,4.47
2018-11-20T08:24:19.890Z,2.77
2018-11-20T08:29:46.583Z,2.80
2018-11-20T08:35:03.143Z,4.27
2018-11-20T08:40:19.061Z,3.33
2018-11-20T08:45:36.707Z,3.60
2018-11-20T08:57:01.679Z,3.77
2018-11-20T09:02:24.779Z,4.63
2018-11-20T09:07:41.048Z,4.00
2018-11-20T09:13:02.794Z,5.00
2018-11-20T09:18:19.191Z,3.43
2018-11-20T09:23:35.576Z,5.43
2018-11-20T09:28:55.952Z,4.30
2018-11-20T09:34:07.017Z,4.67
2018-11-20T09:39:32.776Z,4.73
2018-11-20T09:45:16.638Z,5.77
2018-11-20T09:50:39.912Z,4.27
2018-11-20T09:56:00.056Z,4.27
2018-11-20T10:01:15.828Z,3.73
2018-11-20T10:06:33.482Z,3.43
2018-11-20T10:11:49.925Z,4.23
2018-11-20T10:17:05.754Z,3.47
2018-11-20T10:22:26.648Z,3.93
2018-11-20T10:33:53.816Z,7.40
2018-11-20T10:39:20.349Z,3.83
2018-11-20T10:44:36.405Z,9.03
2018-11-20T10:49:53.454Z,3.47
2018-11-20T10:55:20.128Z,4.27
2018-11-20T11:00:36.268Z,4.30
2018-11-20T11:05:52.386Z,4.57
2018-11-20T11:11:00.643Z,4.67
2018-11-20T11:16:09.415Z,4.67
2018-11-20T11:21:27.048Z,4.23
2018-11-20T11:26:39.784Z,4.63
2018-11-20T11:31:56.192Z,7.10
2018-11-20T11:37:05.589Z,5.00
2018-11-20T11:42:29.326Z,3.70
2018-11-20T11:48:13.136Z,5.13
2018-11-20T11:53:25.125Z,10.73
2018-11-20T11:58:41.626Z,6.70
2018-11-20T12:09:30.435Z,7.17
2018-11-20T12:15:03.100Z,5.30
2018-11-20T12:20:19.304Z,5.07
2018-11-20T12:25:35.614Z,5.57
2018-11-20T12:30:58.316Z,4.63
2018-11-20T12:36:14.442Z,6.07
2018-11-20T12:41:26.653Z,5.53
2018-11-20T12:46:42.245Z,5.17
2018-11-20T12:51:56.102Z,5.63
2018-11-20T12:57:14.258Z,5.90
2018-11-20T13:02:29.072Z,6.47
2018-11-20T13:07:51.311Z,6.33
2018-11-20T13:13:09.651Z,5.87
2018-11-20T13:18:26.018Z,5.33
2018-11-20T13:23:47.355Z,6.77
2018-11-20T13:35:46.087Z,6.00
2018-11-20T13:41:20.834Z,5.47
2018-11-20T13:46:37.300Z,6.43
2018-11-20T13:51:44.655Z,6.23
2018-11-20T13:57:14.520Z,6.43
2018-11-20T14:02:30.661Z,6.70
2018-11-20T14:07:46.992Z,6.40
2018-11-20T14:13:03.072Z,6.63
2018-11-20T14:18:35.454Z,6.67
2018-11-20T14:23:51.721Z,6.53
2018-11-20T14:29:09.394Z,6.40
2018-11-20T14:34:25.937Z,5.77
2018-11-20T14:39:54.912Z,6.80
2018-11-20T14:45:28.673Z,6.90
2018-11-20T14:51:12.578Z,7.37
2018-11-20T14:56:33.126Z,7.63
2018-11-20T15:02:01.680Z,7.07
2018-11-20T15:07:22.463Z,5.53
2018-11-20T15:12:37.938Z,8.00
2018-11-20T15:17:58.866Z,7.10
2018-11-20T15:23:17.541Z,7.23
2018-11-20T15:28:34.080Z,6.60
2018-11-20T15:33:54.044Z,9.27
2018-11-20T15:39:26.718Z,7.33
2018-11-20T15:44:53.310Z,6.87
2018-11-20T15:50:09.727Z,7.70
2018-11-20T15:55:34.273Z,6.00
2018-11-20T16:00:59.818Z,7.43
2018-11-20T16:06:15.916Z,7.20
2018-11-20T16:11:33.543Z,6.83
2018-11-20T16:17:16.889Z,9.43
2018-11-20T16:22:26.638Z,7.73
2018-11-20T16:33:55.138Z,7.23
2018-11-20T16:39:14.660Z,9.27
2018-11-20T16:44:30.804Z,10.13
2018-11-20T16:50:03.398Z,8.20
2018-11-20T16:55:19.729Z,7.73
2018-11-20T17:00:35.877Z,8.13
2018-11-20T17:05:52.196Z,8.83
2018-11-20T17:17:05.510Z,7.77
2018-11-20T17:22:21.900Z,8.17
2018-11-20T17:27:54.780Z,8.57
2018-11-20T17:33:30.426Z,6.87
2018-11-20T17:44:57.081Z,7.83
2018-11-20T17:50:15.566Z,9.67
2018-11-20T17:55:23.380Z,10.10
2018-11-20T18:00:56.016Z,8.83
2018-11-20T18:06:12.390Z,8.50
2018-11-20T18:11:28.638Z,8.17
2018-11-20T18:16:44.797Z,8.40
2018-11-20T18:22:02.452Z,9.40
2018-11-20T18:27:20.102Z,8.33
2018-11-20T18:32:40.750Z,9.50
2018-11-20T18:38:13.557Z,7.30
2018-11-20T18:43:25.003Z,7.23
2018-11-20T18:48:43.392Z,9.63
2018-11-20T18:54:07.579Z,9.67
2018-11-20T18:59:40.535Z,8.93
2018-11-20T19:11:01.556Z,7.27
2018-11-20T19:16:34.309Z,8.30
2018-11-20T19:21:58.134Z,8.53
2018-11-20T19:27:07.095Z,9.13
2018-11-20T19:32:27.713Z,8.30
2018-11-20T19:37:48.643Z,8.43
2018-11-20T19:43:04.871Z,9.03
2018-11-20T19:48:19.091Z,8.33
2018-11-20T19:53:35.746Z,8.57
2018-11-20T19:58:51.985Z,8.17
2018-11-20T20:04:08.100Z,7.50
2018-11-20T20:09:30.541Z,8.57
2018-11-20T20:14:41.720Z,8.60
2018-11-20T20:20:17.534Z,8.03
2018-11-20T20:25:25.125Z,8.60
2018-11-20T20:36:36.780Z,8.77
2018-11-20T20:48:02.147Z,7.27
2018-11-20T20:53:18.440Z,7.90
2018-11-20T20:58:54.384Z,8.80
2018-11-20T21:04:10.748Z,7.97
2018-11-20T21:09:27.344Z,8.17
2018-11-20T21:14:43.383Z,8.07
2018-11-20T21:20:03.763Z,7.57
2018-11-20T21:25:27.578Z,7.73
2018-11-20T21:30:43.838Z,9.03
2018-11-20T21:36:01.127Z,7.80
2018-11-20T21:41:17.297Z,8.83
2018-11-20T21:46:40.989Z,12.07
2018-11-20T21:51:58.647Z,8.17
2018-11-20T21:57:21.987Z,9.97
2018-11-20T22:03:05.915Z,7.73
2018-11-20T22:08:35.682Z,10.73
2018-11-20T22:13:43.534Z,8.93
2018-11-20T22:19:01.241Z,9.53
2018-11-20T22:24:17.423Z,8.37
2018-11-20T22:29:33.940Z,10.37
2018-11-20T22:34:51.977Z,6.93
2018-11-20T22:40:11.993Z,9.57
2018-11-20T22:45:41.702Z,8.70
2018-11-20T22:57:13.109Z,13.33
2018-11-20T23:02:48.716Z,9.47
2018-11-20T23:07:52.661Z,8.77
2018-11-20T23:12:51.367Z,9.00
2018-11-20T23:17:49.960Z,8.33
2018-11-20T23:22:48.333Z,8.87
2018-11-20T23:27:46.843Z,7.60
2018-11-20T23:32:45.157Z,10.70
2018-11-20T23:37:43.891Z,8.07
2018-11-20T23:42:42.331Z,9.20
2018-11-20T23:47:40.704Z,8.23
2018-11-20T23:52:39.196Z,7.33
2018-11-20T23:57:37.558Z,7.37
